Time;durP1;ratioP1;P1;durP2;ratioP2;P2;SDS_P1;SDS_P2;PMS_P1;PMS_P2;Temp;Humidity;BMP_temperature;BMP_pressure;BME280_temperature;BME280_humidity;BME280_pressure;Samples;Min_cycle;Max_cycle;Signal;HPM_P1;HPM_P2
2023/03/22 00:01:35;;;;;;;12.45;5.20;;;;;;;;;;5082918;28;20040;-64
2023/03/22 00:04:01;;;;;;;14.63;5.15;;;;;;;;;;5084993;28;20051;-64
2023/03/22 00:06:27;;;;;;;9.75;4.68;;;;;;;;;;5083166;28;20123;-64
2023/03/22 00:09:00;;;;;;;9.18;5.05;;;;;;;;;;5084275;28;20040;-65
2023/03/22 00:11:34;;;;;;;9.38;5.15;;;;;;;;;;5084349;28;20086;-64
2023/03/22 00:14:05;;;;;;;13.50;4.85;;;;;;;;;;5084315;28;20580;-64
2023/03/22 00:16:31;;;;;;;18.95;5.20;;;;;;;;;;5084170;28;20044;-64
2023/03/22 00:18:57;;;;;;;12.60;4.65;;;;;;;;;;5083053;28;20389;-65
2023/03/22 00:21:23;;;;;;;11.63;5.20;;;;;;;;;;5082894;28;20048;-64
2023/03/22 00:23:49;;;;;;;11.63;4.85;;;;;;;;;;5082282;28;20078;-64
2023/03/22 00:26:16;;;;;;;16.45;4.63;;;;;;;;;;5083805;28;20127;-63
2023/03/22 00:28:42;;;;;;;15.73;4.22;;;;;;;;;;5083911;28;20040;-65
2023/03/22 00:31:08;;;;;;;14.15;4.28;;;;;;;;;;5083610;28;20089;-64
2023/03/22 00:33:41;;;;;;;13.95;3.67;;;;;;;;;;5083398;28;20036;-65
2023/03/22 00:36:18;;;;;;;16.45;4.90;;;;;;;;;;5082517;28;20063;-65
2023/03/22 00:38:51;;;;;;;11.90;4.40;;;;;;;;;;5083250;28;20104;-64
2023/03/22 00:41:27;;;;;;;12.02;4.45;;;;;;;;;;5080422;28;20075;-64
2023/03/22 00:44:05;;;;;;;8.80;3.90;;;;;;;;;;5080934;28;20056;-63
2023/03/22 00:46:41;;;;;;;15.13;3.50;;;;;;;;;;5083307;28;20131;-66
2023/03/22 00:49:17;;;;;;;13.23;4.20;;;;;;;;;;5081843;28;20048;-64
2023/03/22 00:51:52;;;;;;;14.20;3.60;;;;;;;;;;5082498;28;20040;-64
2023/03/22 00:54:26;;;;;;;11.63;3.70;;;;;;;;;;5082999;28;20120;-65
2023/03/22 00:57:03;;;;;;;9.07;3.63;;;;;;;;;;5082688;28;20501;-63
2023/03/22 00:59:39;;;;;;;7.13;3.22;;;;;;;;;;5083206;28;20040;-65
2023/03/22 01:02:16;;;;;;;7.57;3.15;;;;;;;;;;5081728;28;20048;-65
2023/03/22 01:04:52;;;;;;;10.48;3.85;;;;;;;;;;5082464;28;20060;-62
2023/03/22 01:07:29;;;;;;;9.30;3.13;;;;;;;;;;5081437;28;20043;-65
2023/03/22 01:10:05;;;;;;;8.70;3.17;;;;;;;;;;5082312;28;21170;-65
2023/03/22 01:12:42;;;;;;;12.13;2.75;;;;;;;;;;5082957;28;20082;-64
2023/03/22 01:15:18;;;;;;;12.27;3.08;;;;;;;;;;5082537;28;20048;-65
2023/03/22 01:17:54;;;;;;;15.93;3.50;;;;;;;;;;5081832;28;20413;-65
2023/03/22 01:20:33;;;;;;;8.40;2.35;;;;;;;;;;5081600;28;20044;-65
2023/03/22 01:23:09;;;;;;;16.63;3.20;;;;;;;;;;5082968;28;20627;-65
2023/03/22 01:25:38;;;;;;;8.18;2.17;;;;;;;;;;5081382;28;20051;-64
2023/03/22 01:28:06;;;;;;;11.85;2.97;;;;;;;;;;5082133;28;20122;-65
2023/03/22 01:30:32;;;;;;;12.20;2.50;;;;;;;;;;5083094;28;20490;-65
2023/03/22 01:32:59;;;;;;;10.07;2.33;;;;;;;;;;5082303;28;20551;-64
2023/03/22 01:35:25;;;;;;;7.78;2.20;;;;;;;;;;5080663;28;20052;-63
2023/03/22 01:37:51;;;;;;;11.35;2.08;;;;;;;;;;5078959;28;20044;-64
2023/03/22 01:40:18;;;;;;;7.03;1.73;;;;;;;;;;5082424;28;20783;-64
2023/03/22 01:42:44;;;;;;;5.28;2.08;;;;;;;;;;5082311;28;20051;-64
2023/03/22 01:45:29;;;;;;;11.13;2.05;;;;;;;;;;5081987;28;20733;-65
2023/03/22 01:47:57;;;;;;;7.60;2.17;;;;;;;;;;5082157;28;20101;-62
2023/03/22 01:50:24;;;;;;;8.48;1.88;;;;;;;;;;5081651;28;20221;-64
2023/03/22 01:52:51;;;;;;;7.45;1.85;;;;;;;;;;5082062;28;20070;-64
2023/03/22 01:55:21;;;;;;;8.80;1.90;;;;;;;;;;5081864;28;20036;-64
2023/03/22 01:57:48;;;;;;;6.78;1.20;;;;;;;;;;5082113;28;20063;-64
2023/03/22 02:00:17;;;;;;;9.90;1.70;;;;;;;;;;5081182;28;20044;-64
2023/03/22 02:02:44;;;;;;;8.77;1.48;;;;;;;;;;5079833;28;20052;-65
2023/03/22 02:05:11;;;;;;;7.35;1.67;;;;;;;;;;5081767;28;20469;-65
2023/03/22 02:07:39;;;;;;;4.28;2.05;;;;;;;;;;5133068;22;20096;-64
2023/03/22 02:10:09;;;;;;;9.38;1.40;;;;;;;;;;5028400;28;20427;-64
2023/03/22 02:12:48;;;;;;;9.45;1.73;;;;;;;;;;5028883;28;20038;-65
2023/03/22 02:15:20;;;;;;;9.48;1.95;;;;;;;;;;5008647;28;20135;-65
2023/03/22 02:17:50;;;;;;;8.32;1.52;;;;;;;;;;5025627;28;20049;-65
2023/03/22 02:20:28;;;;;;;11.68;2.03;;;;;;;;;;5029284;28;20188;-65
2023/03/22 02:22:57;;;;;;;13.68;1.90;;;;;;;;;;5025843;28;20049;-65
2023/03/22 02:25:43;;;;;;;9.45;1.50;;;;;;;;;;5022295;28;20056;-65
2023/03/22 02:28:15;;;;;;;11.98;2.13;;;;;;;;;;5024069;28;20135;-64
2023/03/22 02:30:47;;;;;;;10.65;1.90;;;;;;;;;;5025428;28;20041;-65
2023/03/22 02:33:26;;;;;;;10.68;2.45;;;;;;;;;;5025276;28;20606;-66
2023/03/22 02:36:06;;;;;;;11.82;2.45;;;;;;;;;;5022515;28;20049;-66
2023/03/22 02:38:44;;;;;;;12.30;2.03;;;;;;;;;;5023938;28;20045;-65
2023/03/22 02:41:14;;;;;;;10.90;1.80;;;;;;;;;;5024988;28;20131;-65
2023/03/22 02:43:49;;;;;;;9.52;1.83;;;;;;;;;;5025064;28;20300;-65
2023/03/22 02:46:22;;;;;;;8.57;1.80;;;;;;;;;;5024768;28;20207;-65
2023/03/22 02:48:56;;;;;;;9.85;1.85;;;;;;;;;;5024785;28;20394;-65
2023/03/22 02:51:26;;;;;;;5.57;1.50;;;;;;;;;;5024184;28;20045;-65
2023/03/22 02:53:55;;;;;;;8.90;1.85;;;;;;;;;;5024988;28;20041;-65
2023/03/22 02:56:31;;;;;;;9.15;2.00;;;;;;;;;;5024705;28;20056;-65
2023/03/22 02:58:58;;;;;;;10.23;2.25;;;;;;;;;;5023463;28;20080;-64
2023/03/22 03:01:27;;;;;;;7.07;2.00;;;;;;;;;;5025092;28;20037;-65
2023/03/22 03:03:56;;;;;;;7.40;2.47;;;;;;;;;;5024634;28;20454;-65
2023/03/22 03:06:24;;;;;;;9.60;2.17;;;;;;;;;;5023655;28;20092;-65
2023/03/22 03:09:02;;;;;;;6.18;1.92;;;;;;;;;;5024754;28;20045;-65
2023/03/22 03:11:38;;;;;;;6.93;1.63;;;;;;;;;;5025235;28;20116;-65
2023/03/22 03:14:22;;;;;;;12.63;2.90;;;;;;;;;;5024387;28;20069;-65
2023/03/22 03:17:01;;;;;;;13.02;2.70;;;;;;;;;;5024170;28;20590;-65
2023/03/22 03:19:42;;;;;;;14.77;2.92;;;;;;;;;;5024234;28;20784;-64
2023/03/22 03:22:18;;;;;;;9.43;2.38;;;;;;;;;;5023527;28;20080;-64
2023/03/22 03:24:55;;;;;;;12.43;2.75;;;;;;;;;;5024547;28;20068;-65
2023/03/22 03:27:30;;;;;;;10.43;2.85;;;;;;;;;;5021512;28;20561;-65
2023/03/22 03:30:01;;;;;;;8.75;2.47;;;;;;;;;;5024474;28;20045;-64
2023/03/22 03:32:30;;;;;;;10.80;2.92;;;;;;;;;;5024290;28;20044;-64
2023/03/22 03:35:21;;;;;;;13.35;2.90;;;;;;;;;;5023394;28;20050;-63
2023/03/22 03:37:51;;;;;;;8.98;2.05;;;;;;;;;;5024457;28;20053;-64
2023/03/22 03:40:20;;;;;;;7.90;2.10;;;;;;;;;;5023659;28;20042;-64
2023/03/22 03:42:46;;;;;;;;;;;;;;;;;;5024903;28;20095;-66
2023/03/22 03:45:12;;;;;;;8.82;2.30;;;;;;;;;;5024099;28;19987;-66
2023/03/22 03:47:39;;;;;;;12.43;2.47;;;;;;;;;;5024131;28;20045;-66
2023/03/22 03:50:06;;;;;;;6.90;2.40;;;;;;;;;;5023184;28;20033;-65
2023/03/22 03:52:32;;;;;;;7.88;2.40;;;;;;;;;;5024363;28;20061;-65
2023/03/22 03:54:58;;;;;;;11.32;2.45;;;;;;;;;;5023761;28;20034;-66
2023/03/22 03:57:25;;;;;;;11.10;2.42;;;;;;;;;;5023888;28;20554;-66
2023/03/22 03:59:51;;;;;;;14.75;2.40;;;;;;;;;;5023690;28;20038;-65
2023/03/22 04:02:17;;;;;;;10.60;2.42;;;;;;;;;;5023587;28;20037;-65
2023/03/22 04:04:43;;;;;;;7.82;2.30;;;;;;;;;;5023001;28;20044;-65
2023/03/22 04:07:10;;;;;;;9.50;2.78;;;;;;;;;;5016921;28;20073;-65
2023/03/22 04:09:37;;;;;;;9.55;2.42;;;;;;;;;;5005993;28;20123;-62
2023/03/22 04:12:03;;;;;;;9.63;2.88;;;;;;;;;;5006540;28;20038;-64
2023/03/22 04:14:29;;;;;;;12.68;2.83;;;;;;;;;;4999253;28;20037;-65
2023/03/22 04:16:55;;;;;;;11.68;2.75;;;;;;;;;;5004451;28;20049;-60
2023/03/22 04:19:22;;;;;;;14.50;3.42;;;;;;;;;;5002905;28;20121;-65
2023/03/22 04:21:48;;;;;;;10.35;3.25;;;;;;;;;;5005975;28;20038;-65
2023/03/22 04:24:14;;;;;;;10.52;4.10;;;;;;;;;;5004103;28;20149;-65
2023/03/22 04:26:41;;;;;;;11.63;3.70;;;;;;;;;;5002899;28;20070;-65
2023/03/22 04:29:07;;;;;;;7.78;3.63;;;;;;;;;;5007483;28;20072;-66
2023/03/22 04:31:35;;;;;;;13.45;4.40;;;;;;;;;;5004364;28;20042;-65
2023/03/22 04:34:04;;;;;;;15.75;5.07;;;;;;;;;;5005416;28;20038;-65
2023/03/22 04:36:38;;;;;;;14.35;5.15;;;;;;;;;;5005404;28;20049;-66
2023/03/22 04:39:15;;;;;;;14.02;5.28;;;;;;;;;;5004055;28;20042;-66
2023/03/22 04:41:51;;;;;;;14.60;5.45;;;;;;;;;;5004402;28;20151;-66
2023/03/22 04:44:27;;;;;;;18.42;6.45;;;;;;;;;;5004415;28;20496;-65
2023/03/22 04:47:04;;;;;;;13.93;6.32;;;;;;;;;;5003132;28;20462;-65
2023/03/22 04:49:41;;;;;;;20.05;7.50;;;;;;;;;;5002313;28;20069;-66
2023/03/22 04:52:17;;;;;;;14.45;5.90;;;;;;;;;;5003949;28;20054;-65
2023/03/22 04:54:54;;;;;;;16.13;6.50;;;;;;;;;;5004379;28;20091;-65
2023/03/22 04:57:30;;;;;;;15.60;7.82;;;;;;;;;;5004198;28;20104;-65
2023/03/22 05:00:14;;;;;;;16.00;8.02;;;;;;;;;;5004571;28;20050;-66
2023/03/22 05:02:50;;;;;;;22.83;8.07;;;;;;;;;;5004492;28;20052;-65
2023/03/22 05:05:27;;;;;;;18.98;8.65;;;;;;;;;;5001406;28;20080;-66
2023/03/22 05:08:05;;;;;;;20.88;9.10;;;;;;;;;;5005416;28;20060;-65
2023/03/22 05:10:42;;;;;;;19.98;8.18;;;;;;;;;;5003280;28;20054;-65
2023/03/22 05:13:19;;;;;;;18.30;8.35;;;;;;;;;;5005410;28;20045;-66
2023/03/22 05:15:55;;;;;;;17.48;8.70;;;;;;;;;;5000664;28;20139;-66
2023/03/22 05:18:32;;;;;;;19.00;8.38;;;;;;;;;;5004574;28;20044;-65
2023/03/22 05:21:09;;;;;;;22.15;8.95;;;;;;;;;;5004178;28;20049;-66
2023/03/22 05:23:46;;;;;;;20.50;8.68;;;;;;;;;;5006262;28;20045;-65
2023/03/22 05:26:25;;;;;;;15.93;8.45;;;;;;;;;;5002078;28;20133;-65
2023/03/22 05:28:54;;;;;;;20.33;9.80;;;;;;;;;;5002042;28;20042;-66
2023/03/22 05:31:21;;;;;;;19.00;9.20;;;;;;;;;;4986715;28;20046;-66
2023/03/22 05:33:54;;;;;;;15.75;8.38;;;;;;;;;;5003721;28;20411;-64
2023/03/22 05:36:31;;;;;;;19.13;8.98;;;;;;;;;;5005512;28;20719;-66
2023/03/22 05:39:08;;;;;;;17.92;9.27;;;;;;;;;;5002732;28;20053;-66
2023/03/22 05:41:44;;;;;;;21.58;9.20;;;;;;;;;;5003431;28;20049;-66
2023/03/22 05:44:21;;;;;;;18.83;8.98;;;;;;;;;;5001043;28;20054;-66
2023/03/22 05:46:57;;;;;;;23.83;9.45;;;;;;;;;;5001425;28;20117;-66
2023/03/22 05:49:34;;;;;;;18.70;8.98;;;;;;;;;;5002322;28;20050;-66
2023/03/22 05:52:10;;;;;;;20.63;8.80;;;;;;;;;;5002692;28;20160;-67
2023/03/22 05:54:47;;;;;;;15.75;8.73;;;;;;;;;;5000080;28;20034;-66
2023/03/22 05:57:23;;;;;;;19.73;9.20;;;;;;;;;;5001790;28;20467;-66
2023/03/22 06:00:00;;;;;;;21.73;9.82;;;;;;;;;;5002227;28;20517;-67
2023/03/22 06:02:30;;;;;;;25.95;12.15;;;;;;;;;;5002739;28;20050;-64
2023/03/22 06:04:56;;;;;;;21.98;9.07;;;;;;;;;;5000862;28;20050;-64
2023/03/22 06:07:24;;;;;;;15.57;8.75;;;;;;;;;;5010099;28;20123;-64
2023/03/22 06:09:50;;;;;;;23.75;9.50;;;;;;;;;;5021269;28;20045;-64
2023/03/22 06:12:17;;;;;;;23.75;11.60;;;;;;;;;;5021511;28;20432;-62
2023/03/22 06:14:43;;;;;;;22.90;9.35;;;;;;;;;;5021849;28;20045;-64
2023/03/22 06:17:10;;;;;;;24.13;13.38;;;;;;;;;;5020605;28;20458;-64
2023/03/22 06:19:37;;;;;;;18.17;8.40;;;;;;;;;;5029652;28;20060;-64
2023/03/22 06:22:03;;;;;;;18.88;9.35;;;;;;;;;;5026032;28;20044;-64
2023/03/22 06:24:29;;;;;;;18.30;8.50;;;;;;;;;;5031619;28;20048;-64
2023/03/22 06:26:56;;;;;;;20.50;9.77;;;;;;;;;;5038920;28;20048;-64
2023/03/22 06:29:22;;;;;;;18.50;9.25;;;;;;;;;;5032271;28;20040;-66
2023/03/22 06:31:48;;;;;;;16.77;9.55;;;;;;;;;;5031867;28;20040;-65
2023/03/22 06:34:15;;;;;;;17.05;7.68;;;;;;;;;;5000095;28;20064;-65
2023/03/22 06:36:41;;;;;;;22.75;9.77;;;;;;;;;;5021157;28;20030;-65
2023/03/22 06:39:08;;;;;;;16.83;8.63;;;;;;;;;;5035061;28;20072;-65
2023/03/22 06:41:34;;;;;;;15.55;8.20;;;;;;;;;;5023562;28;20109;-63
2023/03/22 06:44:01;;;;;;;16.60;8.60;;;;;;;;;;5023767;28;20092;-64
2023/03/22 06:46:27;;;;;;;17.98;8.18;;;;;;;;;;5021692;28;20187;-66
2023/03/22 06:48:54;;;;;;;22.95;9.27;;;;;;;;;;5020312;28;20045;-65
2023/03/22 06:51:20;;;;;;;14.85;8.05;;;;;;;;;;5024124;28;20040;-65
2023/03/22 06:53:47;;;;;;;18.33;8.25;;;;;;;;;;5025914;28;20088;-62
2023/03/22 06:56:13;;;;;;;16.67;8.18;;;;;;;;;;5024706;28;20042;-65
2023/03/22 06:58:39;;;;;;;13.90;7.60;;;;;;;;;;5026343;28;20060;-64
2023/03/22 07:01:06;;;;;;;18.88;8.60;;;;;;;;;;5024975;28;20393;-65
2023/03/22 07:03:32;;;;;;;13.82;8.40;;;;;;;;;;5028611;28;20045;-65
2023/03/22 07:06:05;;;;;;;21.20;8.25;;;;;;;;;;5025063;28;20034;-65
2023/03/22 07:08:41;;;;;;;16.17;7.53;;;;;;;;;;5025332;28;20061;-66
2023/03/22 07:11:17;;;;;;;15.18;6.95;;;;;;;;;;5025237;28;20396;-65
2023/03/22 07:13:47;;;;;;;18.63;7.93;;;;;;;;;;5025590;28;20045;-64
2023/03/22 07:16:14;;;;;;;17.77;7.68;;;;;;;;;;5024706;28;20499;-65
2023/03/22 07:18:40;;;;;;;18.80;7.57;;;;;;;;;;5023921;28;20399;-64
2023/03/22 07:21:06;;;;;;;14.45;6.93;;;;;;;;;;5024614;28;20521;-64
2023/03/22 07:23:32;;;;;;;16.48;6.65;;;;;;;;;;5025500;28;20049;-65
2023/03/22 07:25:59;;;;;;;19.55;6.13;;;;;;;;;;5025175;28;20486;-65
2023/03/22 07:28:26;;;;;;;15.77;6.35;;;;;;;;;;5024911;28;20041;-65
2023/03/22 07:31:02;;;;;;;12.93;6.68;;;;;;;;;;5025039;28;20069;-64
2023/03/22 07:33:29;;;;;;;11.65;6.70;;;;;;;;;;5023788;28;20072;-65
2023/03/22 07:35:55;;;;;;;19.00;6.22;;;;;;;;;;5022080;28;20030;-64
2023/03/22 07:38:21;;;;;;;15.55;6.45;;;;;;;;;;5024954;28;20049;-65
2023/03/22 07:40:49;;;;;;;12.82;6.00;;;;;;;;;;5024707;28;20376;-65
2023/03/22 07:43:15;;;;;;;10.95;6.00;;;;;;;;;;5024477;28;20045;-65
2023/03/22 07:45:41;;;;;;;19.88;5.45;;;;;;;;;;5024769;28;20044;-65
2023/03/22 07:48:10;;;;;;;15.82;6.78;;;;;;;;;;5024417;28;20047;-65
2023/03/22 07:50:36;;;;;;;15.10;5.13;;;;;;;;;;5024168;28;20125;-64
2023/03/22 07:53:03;;;;;;;15.13;5.38;;;;;;;;;;5024967;28;20082;-64
2023/03/22 07:55:29;;;;;;;11.70;4.70;;;;;;;;;;5024855;28;20041;-65
2023/03/22 07:57:56;;;;;;;12.32;5.68;;;;;;;;;;5024495;28;21932;-62
2023/03/22 08:00:22;;;;;;;15.18;5.65;;;;;;;;;;5024172;28;20050;-64
2023/03/22 08:02:48;;;;;;;12.20;4.85;;;;;;;;;;5023616;28;20045;-65
2023/03/22 08:05:15;;;;;;;10.35;5.20;;;;;;;;;;5019330;28;20495;-65
2023/03/22 08:07:41;;;;;;;8.00;4.43;;;;;;;;;;5024338;28;20067;-65
2023/03/22 08:10:07;;;;;;;15.07;5.15;;;;;;;;;;5023790;28;20193;-64
2023/03/22 08:12:34;;;;;;;9.77;4.38;;;;;;;;;;5024696;28;20033;-64
2023/03/22 08:15:00;;;;;;;15.18;4.47;;;;;;;;;;5024020;28;20103;-65
2023/03/22 08:17:26;;;;;;;15.15;4.32;;;;;;;;;;5023783;28;20403;-64
2023/03/22 08:19:53;;;;;;;11.18;4.28;;;;;;;;;;5023067;28;20045;-65
2023/03/22 08:22:24;;;;;;;11.50;4.28;;;;;;;;;;5023955;28;20041;-65
2023/03/22 08:24:52;;;;;;;11.15;4.85;;;;;;;;;;5024436;28;20077;-65
2023/03/22 08:27:19;;;;;;;16.50;4.88;;;;;;;;;;5023423;28;20049;-65
2023/03/22 08:29:47;;;;;;;14.60;4.07;;;;;;;;;;5024037;28;20506;-65
2023/03/22 08:32:13;;;;;;;13.43;4.32;;;;;;;;;;5022789;28;20077;-65
2023/03/22 08:34:40;;;;;;;12.02;4.47;;;;;;;;;;5023340;28;20033;-64
2023/03/22 08:37:07;;;;;;;12.95;4.50;;;;;;;;;;5023501;28;20136;-65
2023/03/22 08:39:33;;;;;;;14.48;4.30;;;;;;;;;;5024127;28;20044;-64
2023/03/22 08:41:59;;;;;;;10.35;4.30;;;;;;;;;;5023918;28;20076;-65
2023/03/22 08:44:26;;;;;;;26.63;4.93;;;;;;;;;;5023281;28;20136;-64
2023/03/22 08:46:52;;;;;;;16.33;4.40;;;;;;;;;;5023467;28;20041;-64
2023/03/22 08:49:18;;;;;;;11.68;4.00;;;;;;;;;;5022260;28;20050;-65
2023/03/22 08:51:44;;;;;;;11.85;3.80;;;;;;;;;;5023120;28;20041;-65
2023/03/22 08:54:11;;;;;;;13.40;4.13;;;;;;;;;;5023085;28;20053;-64
2023/03/22 08:56:37;;;;;;;13.23;3.97;;;;;;;;;;5023246;28;20125;-64
2023/03/22 08:59:04;;;;;;;12.32;4.47;;;;;;;;;;5023817;28;20034;-65
2023/03/22 09:01:30;;;;;;;12.23;4.25;;;;;;;;;;5023617;28;20049;-64
2023/03/22 09:03:57;;;;;;;15.32;4.20;;;;;;;;;;5022380;28;20214;-64
2023/03/22 09:06:24;;;;;;;9.57;3.67;;;;;;;;;;5005320;28;20101;-65
2023/03/22 09:08:51;;;;;;;12.10;3.58;;;;;;;;;;5003536;28;20054;-65
2023/03/22 09:11:18;;;;;;;16.83;4.18;;;;;;;;;;5003208;28;20042;-65
2023/03/22 09:13:44;;;;;;;9.95;4.00;;;;;;;;;;5002914;28;20104;-65
2023/03/22 09:16:10;;;;;;;16.08;3.72;;;;;;;;;;5003249;28;20129;-65
2023/03/22 09:18:37;;;;;;;11.13;3.85;;;;;;;;;;5002620;28;20077;-64
2023/03/22 09:21:04;;;;;;;10.10;3.40;;;;;;;;;;5003635;28;20038;-59
2023/03/22 09:23:31;;;;;;;13.85;4.25;;;;;;;;;;5003407;28;20107;-64
2023/03/22 09:26:00;;;;;;;22.38;3.92;;;;;;;;;;5003323;28;20034;-64
2023/03/22 09:28:26;;;;;;;8.68;3.50;;;;;;;;;;5002886;28;20045;-63
2023/03/22 09:30:52;;;;;;;13.07;3.47;;;;;;;;;;5003582;28;20496;-64
2023/03/22 09:33:18;;;;;;;9.15;3.47;;;;;;;;;;5002222;28;20038;-64
2023/03/22 09:35:44;;;;;;;14.77;3.78;;;;;;;;;;5003076;28;20045;-64
2023/03/22 09:38:12;;;;;;;12.50;3.40;;;;;;;;;;5002756;28;20172;-64
2023/03/22 09:40:45;;;;;;;6.77;2.90;;;;;;;;;;5003557;28;20379;-65
2023/03/22 09:43:12;;;;;;;10.20;3.15;;;;;;;;;;5002926;28;20050;-65
2023/03/22 09:45:40;;;;;;;14.50;3.38;;;;;;;;;;5002717;28;20073;-64
2023/03/22 09:48:11;;;;;;;8.48;3.10;;;;;;;;;;5001039;28;20491;-65
2023/03/22 09:50:42;;;;;;;10.02;3.30;;;;;;;;;;4994857;28;20507;-64
2023/03/22 09:53:12;;;;;;;17.48;3.80;;;;;;;;;;5002475;28;20041;-64
2023/03/22 09:55:40;;;;;;;8.70;2.72;;;;;;;;;;4985637;28;20585;-64
2023/03/22 09:58:07;;;;;;;10.25;3.03;;;;;;;;;;5002646;28;20045;-64
2023/03/22 10:00:41;;;;;;;15.77;3.47;;;;;;;;;;5003257;28;20149;-65
2023/03/22 10:03:25;;;;;;;7.28;2.80;;;;;;;;;;5002126;28;20129;-65
2023/03/22 10:05:52;;;;;;;9.40;2.67;;;;;;;;;;5002919;28;20045;-65
2023/03/22 10:08:25;;;;;;;7.30;2.90;;;;;;;;;;5017997;28;20132;-64
2023/03/22 10:10:51;;;;;;;8.63;3.10;;;;;;;;;;5022314;28;20116;-65
2023/03/22 10:13:29;;;;;;;13.20;3.15;;;;;;;;;;5022305;28;20057;-65
2023/03/22 10:15:57;;;;;;;6.78;2.80;;;;;;;;;;5022765;28;20568;-60
2023/03/22 10:18:33;;;;;;;14.48;3.55;;;;;;;;;;5021250;28;20053;-64
2023/03/22 10:21:03;;;;;;;11.45;2.90;;;;;;;;;;5022903;28;20045;-64
2023/03/22 10:23:32;;;;;;;11.73;2.92;;;;;;;;;;5004143;28;20045;-64
2023/03/22 10:26:00;;;;;;;9.50;2.97;;;;;;;;;;5024472;28;20048;-65
2023/03/22 10:28:37;;;;;;;8.35;2.58;;;;;;;;;;5025725;28;20072;-64
2023/03/22 10:31:03;;;;;;;8.65;2.42;;;;;;;;;;5009241;28;20191;-65
2023/03/22 10:33:30;;;;;;;6.68;2.42;;;;;;;;;;5025708;28;20038;-65
2023/03/22 10:35:56;;;;;;;6.35;2.65;;;;;;;;;;5026060;28;20049;-62
2023/03/22 10:38:26;;;;;;;14.75;2.55;;;;;;;;;;5025473;28;20039;-64
2023/03/22 10:40:53;;;;;;;8.38;2.47;;;;;;;;;;5026198;28;20077;-65
2023/03/22 10:43:22;;;;;;;8.43;2.57;;;;;;;;;;5025293;28;20073;-65
2023/03/22 10:45:50;;;;;;;11.73;2.50;;;;;;;;;;5026128;28;20042;-64
2023/03/22 10:48:24;;;;;;;10.43;2.42;;;;;;;;;;5024749;28;20045;-64
2023/03/22 10:50:50;;;;;;;8.23;2.60;;;;;;;;;;5026121;28;20048;-64
2023/03/22 10:53:17;;;;;;;6.68;2.63;;;;;;;;;;5007563;28;20071;-64
2023/03/22 10:55:43;;;;;;;7.90;2.60;;;;;;;;;;5025266;28;20099;-65
2023/03/22 10:58:20;;;;;;;10.60;2.72;;;;;;;;;;5025557;28;20045;-64
2023/03/22 11:00:48;;;;;;;15.90;3.28;;;;;;;;;;5025534;28;20124;-65
2023/03/22 11:03:31;;;;;;;8.55;2.90;;;;;;;;;;5024532;28;20108;-64
2023/03/22 11:05:58;;;;;;;11.82;2.83;;;;;;;;;;5024770;28;20560;-65
2023/03/22 11:08:24;;;;;;;8.32;3.17;;;;;;;;;;5025189;28;20833;-64
2023/03/22 11:10:53;;;;;;;12.82;3.33;;;;;;;;;;5025789;28;20041;-64
2023/03/22 11:13:21;;;;;;;11.02;2.85;;;;;;;;;;5024919;28;20052;-65
2023/03/22 11:15:50;;;;;;;8.27;3.33;;;;;;;;;;5025679;28;20068;-64
2023/03/22 11:18:17;;;;;;;13.77;3.38;;;;;;;;;;5023653;28;20586;-65
2023/03/22 11:20:53;;;;;;;11.85;2.80;;;;;;;;;;5025410;28;20041;-65
2023/03/22 11:23:20;;;;;;;12.88;2.72;;;;;;;;;;5025129;28;20041;-65
2023/03/22 11:25:48;;;;;;;6.38;2.30;;;;;;;;;;5009856;28;20076;-64
2023/03/22 11:28:18;;;;;;;9.07;2.80;;;;;;;;;;5027076;28;20076;-64
2023/03/22 11:31:04;;;;;;;8.85;2.50;;;;;;;;;;5025518;28;20508;-64
2023/03/22 11:33:31;;;;;;;5.53;2.63;;;;;;;;;;5027230;28;20450;-65
2023/03/22 11:35:59;;;;;;;10.45;3.75;;;;;;;;;;5024605;28;20052;-65
2023/03/22 11:38:28;;;;;;;;;;;;;;;;;;5024759;28;20406;-64
2023/03/22 11:40:54;;;;;;;;;;;;;;;;;;5025296;28;20031;-65
2023/03/22 11:43:22;;;;;;;9.13;2.40;;;;;;;;;;5024873;28;19925;-64
2023/03/22 11:45:50;;;;;;;9.95;2.22;;;;;;;;;;5024770;28;20045;-64
2023/03/22 11:48:20;;;;;;;8.93;2.63;;;;;;;;;;5023344;28;20458;-64
2023/03/22 11:50:47;;;;;;;8.90;2.70;;;;;;;;;;5024766;28;20076;-64
2023/03/22 11:53:17;;;;;;;6.65;2.53;;;;;;;;;;5006404;28;20410;-64
2023/03/22 11:55:44;;;;;;;7.43;2.00;;;;;;;;;;5024520;28;20073;-64
2023/03/22 11:58:21;;;;;;;13.98;3.33;;;;;;;;;;5006212;28;20053;-65
2023/03/22 12:00:51;;;;;;;7.35;2.30;;;;;;;;;;5024249;28;20136;-65
2023/03/22 12:03:18;;;;;;;14.10;2.33;;;;;;;;;;5022715;28;20046;-66
2023/03/22 12:05:47;;;;;;;12.98;2.65;;;;;;;;;;5020548;28;20077;-64
2023/03/22 12:08:28;;;;;;;13.73;2.80;;;;;;;;;;5023544;28;20089;-64
2023/03/22 12:11:00;;;;;;;8.40;2.40;;;;;;;;;;5024456;28;20133;-65
2023/03/22 12:13:32;;;;;;;6.63;2.15;;;;;;;;;;5023933;28;20399;-64
2023/03/22 12:16:00;;;;;;;8.82;2.80;;;;;;;;;;5023382;28;20060;-64
2023/03/22 12:18:30;;;;;;;15.00;2.75;;;;;;;;;;5022836;28;20048;-64
2023/03/22 12:20:57;;;;;;;9.88;3.38;;;;;;;;;;5006072;28;20041;-64
2023/03/22 12:23:25;;;;;;;10.80;2.83;;;;;;;;;;5023522;28;20037;-64
2023/03/22 12:26:02;;;;;;;13.63;3.25;;;;;;;;;;5024029;28;20663;-64
2023/03/22 12:28:34;;;;;;;11.20;3.60;;;;;;;;;;5023706;28;20120;-64
2023/03/22 12:31:02;;;;;;;11.13;2.70;;;;;;;;;;5015677;28;20402;-65
2023/03/22 12:33:30;;;;;;;10.30;3.67;;;;;;;;;;5022559;28;20118;-64
2023/03/22 12:35:57;;;;;;;9.45;3.10;;;;;;;;;;5021808;28;20045;-64
2023/03/22 12:38:29;;;;;;;7.28;2.85;;;;;;;;;;5023409;28;20206;-64
2023/03/22 12:40:57;;;;;;;6.03;2.85;;;;;;;;;;5023530;28;20065;-59
2023/03/22 12:43:34;;;;;;;13.85;3.15;;;;;;;;;;5019513;28;20235;-65
2023/03/22 12:46:02;;;;;;;7.90;3.28;;;;;;;;;;5023007;28;20057;-64
2023/03/22 12:48:34;;;;;;;9.93;3.28;;;;;;;;;;5021653;28;20040;-64
2023/03/22 12:51:02;;;;;;;10.18;3.33;;;;;;;;;;5020835;28;20033;-65
2023/03/22 12:53:33;;;;;;;9.60;3.75;;;;;;;;;;5023390;28;20035;-64
2023/03/22 12:56:00;;;;;;;13.88;3.92;;;;;;;;;;5023369;28;20037;-64
2023/03/22 12:58:27;;;;;;;11.40;3.97;;;;;;;;;;5021487;28;20041;-64
2023/03/22 13:01:06;;;;;;;7.50;3.47;;;;;;;;;;5023094;28;20041;-64
2023/03/22 13:03:38;;;;;;;13.95;3.50;;;;;;;;;;5022684;28;20046;-64
2023/03/22 13:06:06;;;;;;;14.30;3.65;;;;;;;;;;5005191;28;20395;-64
2023/03/22 13:09:01;;;;;;;9.00;4.07;;;;;;;;;;5022975;28;20049;-64
2023/03/22 13:11:27;;;;;;;10.18;3.40;;;;;;;;;;5022524;28;20107;-65
2023/03/22 13:13:53;;;;;;;16.17;4.28;;;;;;;;;;5022867;28;20521;-64
2023/03/22 13:16:21;;;;;;;12.18;4.47;;;;;;;;;;5022755;28;20049;-64
2023/03/22 13:18:47;;;;;;;9.95;4.25;;;;;;;;;;5021858;28;20419;-64
2023/03/22 13:21:20;;;;;;;13.65;3.53;;;;;;;;;;5022441;28;20041;-64
2023/03/22 13:23:59;;;;;;;11.82;3.63;;;;;;;;;;5022860;28;20133;-64
2023/03/22 13:26:36;;;;;;;10.63;3.90;;;;;;;;;;5022653;28;20064;-63
2023/03/22 13:29:09;;;;;;;14.68;4.95;;;;;;;;;;5022910;28;20095;-64
2023/03/22 13:31:38;;;;;;;9.77;4.13;;;;;;;;;;5022919;28;20041;-65
2023/03/22 13:34:12;;;;;;;22.77;4.38;;;;;;;;;;5021104;28;20064;-64
2023/03/22 13:36:38;;;;;;;9.32;3.72;;;;;;;;;;5022806;28;20044;-65
2023/03/22 13:39:08;;;;;;;11.55;4.38;;;;;;;;;;5022157;28;20041;-64
2023/03/22 13:41:34;;;;;;;11.85;4.25;;;;;;;;;;5022787;28;20033;-64
2023/03/22 13:44:01;;;;;;;10.60;4.10;;;;;;;;;;5022943;28;20546;-64
2023/03/22 13:46:43;;;;;;;11.60;4.00;;;;;;;;;;5022149;28;20045;-64
2023/03/22 13:49:19;;;;;;;12.73;4.60;;;;;;;;;;5021731;28;20044;-64
2023/03/22 13:51:46;;;;;;;11.25;4.10;;;;;;;;;;5019685;28;20469;-64
2023/03/22 13:54:12;;;;;;;8.60;3.63;;;;;;;;;;5022293;28;20103;-64
2023/03/22 13:56:41;;;;;;;8.73;4.45;;;;;;;;;;5022257;28;20042;-65
2023/03/22 13:59:28;;;;;;;8.20;4.32;;;;;;;;;;5022341;28;20049;-64
2023/03/22 14:01:58;;;;;;;14.73;4.30;;;;;;;;;;5025984;28;20041;-60
2023/03/22 14:04:29;;;;;;;9.80;4.25;;;;;;;;;;5025588;28;20250;-64
2023/03/22 14:06:58;;;;;;;10.10;4.55;;;;;;;;;;5026152;28;20085;-61
2023/03/22 14:09:29;;;;;;;13.93;4.18;;;;;;;;;;5025977;28;20045;-65
2023/03/22 14:12:00;;;;;;;16.58;4.78;;;;;;;;;;5025998;28;20037;-59
2023/03/22 14:14:28;;;;;;;16.48;4.82;;;;;;;;;;5026435;28;20037;-65
2023/03/22 14:17:02;;;;;;;10.23;3.92;;;;;;;;;;5025895;28;20033;-64
2023/03/22 14:19:31;;;;;;;13.38;4.95;;;;;;;;;;5025542;28;20049;-64
2023/03/22 14:21:59;;;;;;;14.43;4.40;;;;;;;;;;5025589;28;20132;-64
2023/03/22 14:24:28;;;;;;;9.50;4.72;;;;;;;;;;5025791;28;20072;-65
2023/03/22 14:26:55;;;;;;;7.22;4.63;;;;;;;;;;5026269;28;20056;-65
2023/03/22 14:29:23;;;;;;;8.57;4.50;;;;;;;;;;5022006;28;20163;-64
2023/03/22 14:31:59;;;;;;;16.20;4.55;;;;;;;;;;5025993;28;20037;-65
2023/03/22 14:34:26;;;;;;;13.25;5.15;;;;;;;;;;5024805;28;20049;-63
2023/03/22 14:36:56;;;;;;;14.95;4.50;;;;;;;;;;5008202;28;20037;-64
2023/03/22 14:39:25;;;;;;;14.18;4.18;;;;;;;;;;5029166;28;20213;-65
2023/03/22 14:41:57;;;;;;;11.80;3.85;;;;;;;;;;5024344;28;20037;-65
2023/03/22 14:44:23;;;;;;;9.85;4.00;;;;;;;;;;5027937;28;20064;-65
2023/03/22 14:46:50;;;;;;;9.13;3.80;;;;;;;;;;5030498;28;20095;-65
2023/03/22 14:49:18;;;;;;;10.00;3.97;;;;;;;;;;5028945;28;20451;-64
2023/03/22 14:51:47;;;;;;;10.10;4.07;;;;;;;;;;5023852;28;20046;-65
2023/03/22 14:54:20;;;;;;;11.10;4.25;;;;;;;;;;5025055;28;20060;-65